Parkland, Pennsylvania
Current Conditions -  °F | °C
As of 3:54 AM on Sunday 26 Oct 2014 (Local Time) from KPNE Reporting Station
Clear Clear  
Wind Chill: 58°   Ceiling: Unl
Heat Index: 58°   Visibility: 10mi
Dew Point: 45°   Wind: 5mph
Humidity: 62%   Direction: 250°WSW
Pressure: 29.61"   Gusts: NA
Location:  40.1816°N, 74.9144°W
Report Text: KPNE 260754Z 25004KT 10SM CLR 14/07 A2961 RMK AO2 SLP027 T01440072
Loading
Personal Weather Stations






























Interactive Weather Map
Tropical Storm Tracking
New forecast layout! Learn more

10-Day Weather Forecast

Advertisements
Track Severe Weather on mobile